Terminal Aerodrome Forecast
Issued by NWS

Home | Current Version | Previous Version | Text Only | Print | Product List | Glossary On
Versions: 1 2 3 4 5 6 7 8 9 10 11 12 13 14 15 16 17 18 19 20 21 22 23
790
FTUS43 KSGF 260405 AAB
TAFJLN
TAF AMD
KJLN 260405Z 2604/2624 15010KT P6SM BKN050
      TEMPO 2604/2606 VRB30G40KT 1SM +TSRA OVC015CB
     FM260800 25007KT P6SM SHRA OVC020
      TEMPO 2608/2611 4SM TS OVC015CB
     FM261100 32009KT P6SM SHRA VCTS OVC008CB
     FM261800 35011KT 5SM SHRA OVC008
     FM262300 32009KT 6SM SHRA OVC020=

USA.gov is the U.S. government's official web portal to all federal, state and local government web resources and services.